This is the latest recevied weather packets stored in our database for station/object OK1FPA-13. If no packets are shown the sender has not sent any weather packets the latest 10 day(s).
| Time | Temp. | Humidity | Pressure | Rain* | Wind** | Luminosity | Snow |
|---|---|---|---|---|---|---|---|
| 1777740871 | 22.78° C | 30% | 1017.7 hPa | - | - | - | - |
| 1777740271 | 22.78° C | 29% | 1017.8 hPa | - | - | - | - |
| 1777739671 | 23.33° C | 27% | 1017.9 hPa | - | - | - | - |
| 1777739071 | 23.33° C | 27% | 1018 hPa | - | - | - | - |
| 1777738471 | 23.89° C | 26% | 1018.1 hPa | - | - | - | - |
| 1777737871 | 23.89° C | 26% | 1018.3 hPa | - | - | - | - |
| 1777737271 | 24.44° C | 24% | 1018.5 hPa | - | - | - | - |
| 1777736671 | 24.44° C | 23% | 1018.6 hPa | - | - | - | - |
| 1777736071 | 25° C | 23% | 1018.8 hPa | - | - | - | - |
| 1777735471 | 26.11° C | 20% | 1018.8 hPa | - | - | - | - |
| 1777734871 | 26.11° C | 22% | 1018.9 hPa | - | - | - | - |
| 1777734271 | 25.56° C | 22% | 1019.1 hPa | - | - | - | - |
| 1777733671 | 26.67° C | 21% | 1019.2 hPa | - | - | - | - |
| 1777733071 | 26.67° C | 21% | 1019.3 hPa | - | - | - | - |
| 1777732471 | 26.11° C | 21% | 1019.5 hPa | - | - | - | - |
| 1777731871 | 26.11° C | 21% | 1019.5 hPa | - | - | - | - |
| 1777731271 | 25.56° C | 21% | 1019.6 hPa | - | - | - | - |
| 1777730671 | 26.67° C | 20% | 1019.7 hPa | - | - | - | - |
| 1777730071 | 26.67° C | 19% | 1019.8 hPa | - | - | - | - |
| 1777729471 | 26.11° C | 19% | 1019.9 hPa | - | - | - | - |
| 1777728871 | 26.11° C | 20% | 1020.1 hPa | - | - | - | - |
| 1777728274 | 25.56° C | 19% | 1020.2 hPa | - | - | - | - |
| 1777727669 | 25.56° C | 20% | 1020.4 hPa | - | - | - | - |
| 1777727069 | 25.56° C | 20% | 1020.6 hPa | - | - | - | - |
| 1777726469 | 25.56° C | 20% | 1020.7 hPa | - | - | - | - |
* Rain since midnight (hover to see other rain measurements)
** Current wind speed in m/s (hover to see current wind gust speed)